Time;durP1;ratioP1;P1;durP2;ratioP2;P2;SDS_P1;SDS_P2;PMS_P1;PMS_P2;Temp;Humidity;BMP_temperature;BMP_pressure;BME280_temperature;BME280_humidity;BME280_pressure;Samples;Min_cycle;Max_cycle;Signal;HPM_P1;HPM_P2
2021/04/20 00:01:28;;;;;;;12.30;4.05;;;22.30;57.70;;;;;;5087605;28;20012;-71
2021/04/20 00:03:55;;;;;;;10.10;3.53;;;22.30;57.70;;;;;;5090121;28;20008;-70
2021/04/20 00:06:21;;;;;;;10.32;2.55;;;22.30;57.70;;;;;;5090593;28;20399;-70
2021/04/20 00:08:48;;;;;;;10.38;4.72;;;22.30;57.70;;;;;;5089543;28;20016;-71
2021/04/20 00:11:15;;;;;;;11.65;4.68;;;22.30;57.70;;;;;;5090615;28;20103;-71
2021/04/20 00:13:41;;;;;;;9.60;3.65;;;22.30;57.70;;;;;;5089912;28;20530;-70
2021/04/20 00:16:08;;;;;;;14.02;3.95;;;22.20;57.60;;;;;;5089000;28;20020;-70
2021/04/20 00:18:34;;;;;;;11.65;4.47;;;22.20;57.70;;;;;;5089502;28;20016;-71
2021/04/20 00:21:01;;;;;;;8.88;2.72;;;22.20;57.60;;;;;;5090221;28;20028;-71
2021/04/20 00:23:27;;;;;;;11.48;5.13;;;22.20;57.70;;;;;;5083934;28;20012;-73
2021/04/20 00:25:54;;;;;;;12.98;4.82;;;22.20;57.60;;;;;;5089511;28;20093;-70
2021/04/20 00:28:28;;;;;;;7.70;2.83;;;22.20;57.60;;;;;;5090225;28;20023;-70
2021/04/20 00:30:55;;;;;;;13.93;2.95;;;22.20;57.70;;;;;;5086693;28;20055;-69
2021/04/20 00:33:21;;;;;;;10.95;3.25;;;22.20;57.60;;;;;;5088784;28;20115;-70
2021/04/20 00:35:48;;;;;;;13.65;3.00;;;22.20;57.60;;;;;;5089806;28;20479;-71
2021/04/20 00:38:15;;;;;;;11.45;3.83;;;22.20;57.60;;;;;;5090502;28;20085;-74
2021/04/20 00:40:42;;;;;;;8.65;3.58;;;22.20;57.70;;;;;;5089659;28;20077;-70
2021/04/20 00:43:08;;;;;;;9.52;2.88;;;22.20;57.70;;;;;;5089349;28;20502;-70
2021/04/20 00:45:37;;;;;;;10.05;3.13;;;22.20;57.80;;;;;;5084657;28;20047;-71
2021/04/20 00:48:05;;;;;;;11.82;3.65;;;22.10;57.60;;;;;;5089261;28;20044;-73
2021/04/20 00:50:38;;;;;;;11.25;3.53;;;22.20;57.70;;;;;;5089761;28;20404;-73
2021/04/20 00:53:07;;;;;;;12.35;3.33;;;22.20;57.70;;;;;;5087809;28;20056;-72
2021/04/20 00:55:34;;;;;;;14.55;4.55;;;22.10;57.70;;;;;;5087638;28;20035;-71
2021/04/20 00:58:01;;;;;;;4.90;2.80;;;22.10;57.70;;;;;;5089669;28;20020;-71
2021/04/20 01:00:31;;;;;;;14.48;3.67;;;22.10;57.70;;;;;;5088943;28;20059;-73
2021/04/20 01:02:58;;;;;;;14.88;4.32;;;22.10;57.70;;;;;;5087131;28;20043;-71
2021/04/20 01:05:37;;;;;;;10.75;3.45;;;22.10;57.80;;;;;;5088759;28;20395;-70
2021/04/20 01:08:09;;;;;;;9.70;3.97;;;22.10;57.80;;;;;;5089129;28;20055;-72
2021/04/20 01:10:40;;;;;;;17.67;4.10;;;22.10;57.80;;;;;;5085290;28;20061;-71
2021/04/20 01:13:07;;;;;;;9.82;2.83;;;22.00;57.70;;;;;;5089696;28;20479;-71
2021/04/20 01:15:35;;;;;;;15.75;3.58;;;22.00;57.70;;;;;;5089773;28;20375;-70
2021/04/20 01:18:10;;;;;;;8.65;2.63;;;22.00;57.70;;;;;;5085442;28;20020;-75
2021/04/20 01:20:40;;;;;;;10.73;3.22;;;22.00;57.70;;;;;;5090119;28;20058;-70
2021/04/20 01:23:10;;;;;;;7.28;3.00;;;22.00;57.70;;;;;;5088517;28;20020;-70
2021/04/20 01:25:37;;;;;;;7.70;2.22;;;22.00;57.70;;;;;;5089566;28;20028;-70
2021/04/20 01:28:04;;;;;;;9.10;3.80;;;22.00;57.70;;;;;;5089208;28;20020;-70
2021/04/20 01:30:31;;;;;;;8.50;2.55;;;22.00;57.70;;;;;;5088851;28;20047;-70
2021/04/20 01:33:04;;;;;;;12.00;3.20;;;22.00;57.70;;;;;;5083058;28;20017;-69
2021/04/20 01:35:33;;;;;;;13.82;3.33;;;22.00;57.70;;;;;;5088861;28;20009;-73
2021/04/20 01:38:02;;;;;;;12.23;2.70;;;22.00;57.70;;;;;;5089818;28;20024;-69
2021/04/20 01:40:30;;;;;;;7.50;2.60;;;21.90;57.70;;;;;;5085191;28;20017;-70
2021/04/20 01:43:02;;;;;;;8.60;2.40;;;21.90;57.70;;;;;;5089340;28;20020;-74
2021/04/20 01:45:31;;;;;;;10.32;3.03;;;21.90;57.70;;;;;;5087722;28;20077;-69
2021/04/20 01:47:59;;;;;;;11.43;3.10;;;21.90;57.70;;;;;;5088659;28;20023;-71
2021/04/20 01:50:26;;;;;;;7.72;2.20;;;21.90;57.80;;;;;;5089518;28;20016;-69
2021/04/20 01:52:54;;;;;;;7.90;2.67;;;21.90;57.80;;;;;;5088506;28;20020;-71
2021/04/20 01:55:20;;;;;;;11.20;3.08;;;21.90;57.80;;;;;;5082298;28;20547;-70
2021/04/20 01:57:50;;;;;;;9.73;3.53;;;21.90;57.80;;;;;;5088356;28;20028;-69
2021/04/20 02:00:19;;;;;;;12.38;3.17;;;21.90;57.80;;;;;;5088940;28;20032;-69
2021/04/20 02:02:46;;;;;;;11.20;3.55;;;21.90;57.90;;;;;;5088615;28;20108;-69
2021/04/20 02:05:15;;;;;;;9.80;3.35;;;21.80;57.80;;;;;;5085003;28;20038;-69
2021/04/20 02:07:42;;;;;;;10.07;2.78;;;21.80;57.90;;;;;;5089409;28;20542;-71
2021/04/20 02:10:11;;;;;;;11.57;2.78;;;21.80;57.90;;;;;;5092083;28;20027;-69
2021/04/20 02:12:39;;;;;;;13.75;5.35;;;21.80;57.90;;;;;;5093282;28;20027;-70
2021/04/20 02:15:08;;;;;;;20.48;3.75;;;21.80;58.00;;;;;;5091981;28;20525;-71
2021/04/20 02:17:35;;;;;;;9.38;3.35;;;21.80;58.00;;;;;;5087695;28;20028;-70
2021/04/20 02:20:07;;;;;;;8.13;2.78;;;21.80;58.00;;;;;;5091506;28;20114;-72
2021/04/20 02:22:45;;;;;;;12.07;2.75;;;21.80;58.00;;;;;;5091136;28;20425;-71
2021/04/20 02:25:15;;;;;;;19.65;5.25;;;21.80;58.10;;;;;;5088862;28;20070;-70
2021/04/20 02:27:42;;;;;;;14.10;4.32;;;21.70;58.10;;;;;;5089516;28;20032;-70
2021/04/20 02:30:11;;;;;;;11.15;3.70;;;21.70;58.10;;;;;;5092174;28;20517;-73
2021/04/20 02:32:39;;;;;;;9.65;3.40;;;21.70;58.10;;;;;;5091799;28;20020;-70
2021/04/20 02:35:09;;;;;;;14.60;3.95;;;21.80;58.20;;;;;;5092460;28;20482;-70
2021/04/20 02:37:36;;;;;;;11.75;3.58;;;21.70;58.20;;;;;;5092479;28;20467;-70
2021/04/20 02:40:10;;;;;;;8.13;2.92;;;21.70;58.20;;;;;;5090626;28;20048;-72
2021/04/20 02:42:39;;;;;;;13.40;4.13;;;21.70;58.20;;;;;;5091999;28;20021;-70
2021/04/20 02:45:08;;;;;;;14.82;3.40;;;21.70;58.30;;;;;;5091576;28;20111;-71
2021/04/20 02:47:35;;;;;;;8.23;2.40;;;21.70;58.30;;;;;;5092219;28;20046;-71
2021/04/20 02:50:06;;;;;;;16.77;4.30;;;21.70;58.30;;;;;;5089376;28;20024;-72
2021/04/20 02:52:34;;;;;;;16.38;9.30;;;21.60;58.30;;;;;;5091263;28;20115;-70
2021/04/20 02:55:00;;;;;;;20.83;10.75;;;21.70;58.40;;;;;;5092272;28;20020;-70
2021/04/20 02:57:29;;;;;;;19.48;9.85;;;21.60;58.40;;;;;;5091070;28;20053;-70
2021/04/20 02:59:57;;;;;;;14.45;7.32;;;21.60;58.40;;;;;;5092125;28;20031;-69
2021/04/20 03:02:23;;;;;;;12.23;4.57;;;21.60;58.50;;;;;;5089751;28;20540;-70
2021/04/20 03:04:52;;;;;;;12.85;5.25;;;21.60;58.60;;;;;;5091233;28;20132;-72
2021/04/20 03:07:18;;;;;;;11.60;3.60;;;21.60;58.20;;;;;;5090531;28;20027;-70
2021/04/20 03:09:46;;;;;;;15.80;4.20;;;21.60;58.60;;;;;;5091700;28;20060;-69
2021/04/20 03:12:14;;;;;;;11.45;3.65;;;21.60;58.70;;;;;;5091976;28;20537;-70
2021/04/20 03:14:41;;;;;;;13.20;3.45;;;21.60;58.70;;;;;;5091183;28;20016;-69
2021/04/20 03:17:08;;;;;;;11.02;3.60;;;21.50;58.70;;;;;;5089483;28;20027;-70
2021/04/20 03:19:34;;;;;;;11.32;2.97;;;21.50;58.80;;;;;;5090187;28;20073;-70
2021/04/20 03:22:02;;;;;;;8.82;3.70;;;21.50;58.90;;;;;;5091682;28;20020;-70
2021/04/20 03:24:32;;;;;;;8.93;3.10;;;21.50;58.90;;;;;;5090353;28;20025;-72
2021/04/20 03:26:59;;;;;;;10.85;3.42;;;21.50;59.00;;;;;;5091431;28;20157;-73
2021/04/20 03:29:26;;;;;;;10.15;3.45;;;21.50;59.00;;;;;;5091213;28;20352;-70
2021/04/20 03:31:53;;;;;;;11.02;6.15;;;21.50;59.00;;;;;;5090654;28;20118;-70
2021/04/20 03:34:35;;;;;;;18.25;9.68;;;21.50;59.00;;;;;;5091207;28;20012;-69
2021/04/20 03:37:04;;;;;;;15.02;7.50;;;21.40;59.00;;;;;;5090154;28;20020;-71
2021/04/20 03:39:53;;;;;;;16.73;6.07;;;21.40;59.10;;;;;;5083855;28;20507;-70
2021/04/20 03:42:23;;;;;;;14.55;4.80;;;21.40;59.10;;;;;;5087742;28;20474;-69
2021/04/20 03:44:54;;;;;;;11.75;4.20;;;21.40;59.10;;;;;;5090625;28;20047;-70
2021/04/20 03:47:25;;;;;;;11.90;4.07;;;21.40;59.10;;;;;;5090252;28;20109;-69
2021/04/20 03:49:55;;;;;;;8.65;4.10;;;21.40;59.20;;;;;;5090002;28;20052;-70
2021/04/20 03:52:33;;;;;;;11.10;4.10;;;21.40;59.20;;;;;;5085656;28;20031;-70
2021/04/20 03:55:02;;;;;;;13.23;4.13;;;21.40;59.20;;;;;;5089699;28;20035;-73
2021/04/20 03:57:33;;;;;;;10.50;4.35;;;21.40;59.30;;;;;;5090963;28;20076;-70
2021/04/20 04:00:01;;;;;;;15.32;4.60;;;21.40;59.30;;;;;;5091264;28;20024;-70
2021/04/20 04:02:31;;;;;;;11.35;4.65;;;21.30;59.30;;;;;;5089296;28;20024;-70
2021/04/20 04:05:01;;;;;;;18.30;5.53;;;21.30;59.30;;;;;;5089450;28;20120;-69
2021/04/20 04:07:30;;;;;;;23.13;12.20;;;21.30;59.30;;;;;;5087389;28;20119;-69
2021/04/20 04:09:56;;;;;;;24.98;13.77;;;21.30;59.40;;;;;;5090879;28;20052;-70
2021/04/20 04:12:25;;;;;;;21.27;13.15;;;21.30;59.40;;;;;;5089019;28;20053;-71
2021/04/20 04:14:55;;;;;;;20.30;11.95;;;21.30;59.40;;;;;;5089995;28;20009;-75
2021/04/20 04:17:25;;;;;;;18.95;8.13;;;21.30;59.50;;;;;;5089100;28;20048;-71
2021/04/20 04:19:54;;;;;;;13.95;7.10;;;21.30;59.50;;;;;;5089361;28;20012;-72
2021/04/20 04:22:35;;;;;;;22.02;11.13;;;21.30;59.50;;;;;;5079732;28;20019;-72
2021/04/20 04:25:04;;;;;;;30.00;16.08;;;21.20;59.50;;;;;;5077297;28;20028;-77
2021/04/20 04:27:39;;;;;;;36.25;24.60;;;21.20;59.50;;;;;;5085794;28;20028;-78
2021/04/20 04:30:09;;;;;;;;;;;21.30;59.50;;;;;;5065120;28;20143;-69
2021/04/20 04:32:42;;;;;;;22.20;13.80;;;21.20;59.50;;;;;;5081529;28;19912;-72
2021/04/20 04:35:12;;;;;;;20.10;10.48;;;21.20;59.50;;;;;;5084130;28;20012;-70
2021/04/20 04:37:41;;;;;;;19.08;11.73;;;21.20;59.50;;;;;;5083121;28;20032;-70
2021/04/20 04:40:09;;;;;;;14.00;9.20;;;21.20;59.60;;;;;;5082650;28;20027;-68
2021/04/20 04:42:37;;;;;;;16.77;8.88;;;21.20;59.70;;;;;;5085196;28;20020;-70
2021/04/20 04:45:08;;;;;;;15.45;6.47;;;21.20;59.70;;;;;;5080340;28;20040;-71
2021/04/20 04:47:37;;;;;;;17.25;4.97;;;21.20;59.70;;;;;;5085626;28;20028;-71
2021/04/20 04:50:06;;;;;;;13.27;4.57;;;21.20;59.80;;;;;;5080493;28;20024;-72
2021/04/20 04:52:34;;;;;;;13.73;4.78;;;21.20;59.80;;;;;;5071024;28;20020;-69
2021/04/20 04:55:02;;;;;;;10.80;4.18;;;21.20;59.80;;;;;;5068567;28;20534;-69
2021/04/20 04:57:30;;;;;;;9.45;3.15;;;21.20;59.70;;;;;;5088417;28;20025;-70
2021/04/20 05:00:00;;;;;;;10.35;3.20;;;21.20;59.70;;;;;;5088415;28;20479;-69
2021/04/20 05:02:28;;;;;;;8.30;3.58;;;21.20;59.70;;;;;;5089715;28;20530;-70
2021/04/20 05:04:56;;;;;;;6.60;2.70;;;21.10;59.70;;;;;;5088876;28;20120;-71
2021/04/20 05:07:25;;;;;;;11.63;3.25;;;21.10;59.70;;;;;;5070551;28;20030;-72
2021/04/20 05:09:52;;;;;;;9.93;3.70;;;21.10;59.70;;;;;;5089835;28;20035;-69
2021/04/20 05:12:20;;;;;;;12.73;4.50;;;21.10;59.70;;;;;;5086539;28;20020;-70
2021/04/20 05:14:49;;;;;;;10.70;2.97;;;21.10;59.70;;;;;;5077633;28;20039;-69
2021/04/20 05:17:19;;;;;;;10.98;3.50;;;21.10;59.60;;;;;;5075965;28;20024;-73
2021/04/20 05:19:49;;;;;;;13.75;3.33;;;21.10;59.60;;;;;;5077728;28;20024;-69
2021/04/20 05:22:16;;;;;;;12.00;2.80;;;21.10;59.60;;;;;;5076713;28;20018;-69
2021/04/20 05:24:44;;;;;;;11.27;3.00;;;21.10;59.60;;;;;;5077672;28;20071;-74
2021/04/20 05:27:11;;;;;;;7.63;3.50;;;21.10;59.60;;;;;;5077081;28;20013;-69
2021/04/20 05:29:40;;;;;;;11.48;4.15;;;21.10;59.60;;;;;;5077568;28;20452;-70
2021/04/20 05:32:09;;;;;;;14.63;3.95;;;21.10;59.50;;;;;;5078584;28;20027;-71
2021/04/20 05:34:36;;;;;;;14.50;4.38;;;21.10;59.60;;;;;;5076968;28;20098;-69
2021/04/20 05:37:03;;;;;;;12.35;3.88;;;21.10;59.60;;;;;;5082400;28;20020;-72
2021/04/20 05:39:30;;;;;;;11.25;3.50;;;21.10;59.60;;;;;;5089407;28;20052;-71
2021/04/20 05:41:56;;;;;;;9.55;3.10;;;21.10;59.70;;;;;;5088756;28;20063;-73
2021/04/20 05:44:23;;;;;;;15.13;3.53;;;21.10;59.70;;;;;;5093450;28;20012;-74
2021/04/20 05:46:50;;;;;;;12.95;3.90;;;21.00;59.70;;;;;;5092423;28;20501;-74
2021/04/20 05:49:18;;;;;;;11.05;4.25;;;21.00;59.70;;;;;;5093307;28;20031;-75
2021/04/20 05:51:45;;;;;;;14.93;4.47;;;21.00;59.80;;;;;;5091112;28;20064;-73
2021/04/20 05:54:12;;;;;;;9.02;4.68;;;21.00;59.80;;;;;;5091188;28;20399;-74
2021/04/20 05:56:39;;;;;;;13.95;4.03;;;21.10;59.90;;;;;;5090833;28;20016;-74
2021/04/20 05:59:06;;;;;;;13.68;4.57;;;21.10;59.90;;;;;;5093019;28;20050;-74
2021/04/20 06:01:44;;;;;;;12.48;4.25;;;21.00;59.90;;;;;;5091698;28;20024;-74
2021/04/20 06:04:11;;;;;;;12.75;4.50;;;21.10;60.00;;;;;;5092416;28;20091;-70
2021/04/20 06:06:40;;;;;;;15.88;5.43;;;21.00;60.00;;;;;;5093604;28;20020;-70
2021/04/20 06:09:09;;;;;;;11.25;4.35;;;21.00;60.00;;;;;;5092281;28;20016;-69
2021/04/20 06:11:38;;;;;;;13.13;3.78;;;21.00;60.00;;;;;;5093174;28;20020;-69
2021/04/20 06:14:05;;;;;;;10.82;5.90;;;21.00;60.10;;;;;;5092645;28;20047;-69
2021/04/20 06:16:32;;;;;;;12.38;4.55;;;21.00;60.10;;;;;;5087060;28;20024;-71
2021/04/20 06:18:58;;;;;;;9.95;3.80;;;21.00;60.10;;;;;;5090998;28;20016;-69
2021/04/20 06:21:26;;;;;;;12.50;4.40;;;21.00;60.20;;;;;;5073640;28;20196;-69
2021/04/20 06:23:53;;;;;;;11.60;4.90;;;21.00;60.20;;;;;;5092184;28;20035;-72
2021/04/20 06:26:21;;;;;;;10.50;4.55;;;21.00;60.30;;;;;;5091756;28;20384;-72
2021/04/20 06:28:48;;;;;;;5.97;3.97;;;21.00;60.40;;;;;;5092950;28;20018;-72
2021/04/20 06:31:16;;;;;;;8.23;3.90;;;21.00;60.30;;;;;;5092106;28;20117;-69
2021/04/20 06:33:45;;;;;;;8.65;2.97;;;21.00;60.20;;;;;;5091860;28;20039;-71
2021/04/20 06:36:12;;;;;;;8.88;3.88;;;21.00;60.30;;;;;;5092895;28;20082;-69
2021/04/20 06:38:39;;;;;;;8.35;3.08;;;21.10;60.40;;;;;;5091508;28;20101;-70
2021/04/20 06:41:09;;;;;;;7.95;3.08;;;21.10;60.40;;;;;;5092389;28;20016;-70
2021/04/20 06:44:34;;;;;;;6.28;2.72;;;21.00;60.40;;;;;;5091820;28;20103;-71
2021/04/20 06:47:20;;;;;;;6.50;2.70;;;21.10;60.40;;;;;;4982826;28;20046;-68
2021/04/20 06:49:56;;;;;;;8.57;3.22;;;21.10;60.40;;;;;;4986102;28;20030;-71
2021/04/20 06:52:55;;;;;;;9.45;2.95;;;21.10;60.30;;;;;;5057908;28;20130;-68
2021/04/20 06:55:26;;;;;;;6.88;2.65;;;21.10;60.30;;;;;;5085407;28;20016;-69
2021/04/20 06:58:12;;;;;;;8.98;3.88;;;21.20;60.30;;;;;;5092221;28;20039;-68
2021/04/20 07:00:40;;;;;;;;;;;21.20;60.20;;;;;;5088522;28;20021;-69
2021/04/20 07:03:25;;;;;;;8.65;3.30;;;21.20;60.20;;;;;;5091873;28;19904;-69
2021/04/20 07:06:13;;;;;;;5.97;3.23;;;21.20;60.10;;;;;;5091641;28;20032;-68
2021/04/20 07:09:02;;;;;;;7.28;2.70;;;21.20;60.00;;;;;;5083931;28;20031;-69
2021/04/20 07:11:32;;;;;;;7.47;2.88;;;21.30;60.00;;;;;;5086139;28;20069;-69
2021/04/20 07:14:02;;;;;;;9.88;3.65;;;21.30;60.00;;;;;;5090858;28;20016;-69
2021/04/20 07:16:29;;;;;;;8.90;2.88;;;21.40;60.00;;;;;;5091713;28;20020;-70
2021/04/20 07:18:55;;;;;;;7.55;2.72;;;21.40;60.00;;;;;;5091436;28;20020;-69
2021/04/20 07:21:59;;;;;;;11.50;4.38;;;21.40;59.90;;;;;;5089876;28;20016;-70
2021/04/20 07:24:40;;;;;;;8.82;3.30;;;21.40;59.80;;;;;;5088539;28;20509;-69
2021/04/20 07:27:21;;;;;;;8.88;3.15;;;21.40;59.70;;;;;;5090955;28;20617;-69
2021/04/20 07:30:02;;;;;;;10.98;3.80;;;21.50;59.70;;;;;;5091109;28;20037;-69
2021/04/20 07:32:47;;;;;;;8.15;3.50;;;21.50;59.60;;;;;;5088531;28;20024;-69
2021/04/20 07:35:22;;;;;;;10.07;3.93;;;21.50;59.50;;;;;;5083591;28;20402;-69
2021/04/20 07:37:57;;;;;;;8.65;3.80;;;21.60;59.50;;;;;;5091385;28;20028;-68
2021/04/20 07:40:26;;;;;;;12.27;4.78;;;21.60;59.50;;;;;;5091213;28;20027;-69
2021/04/20 07:43:06;;;;;;;14.82;5.47;;;21.60;59.40;;;;;;5090615;28;20020;-69
2021/04/20 07:46:14;;;;;;;13.13;5.07;;;21.70;59.50;;;;;;5085953;28;20036;-69
2021/04/20 07:48:43;;;;;;;12.80;5.50;;;21.70;59.40;;;;;;5085369;28;20020;-69
2021/04/20 07:51:30;;;;;;;17.42;5.60;;;21.70;59.40;;;;;;5090975;28;20020;-70
2021/04/20 07:54:12;;;;;;;13.50;5.35;;;21.70;59.40;;;;;;5088343;28;20024;-71
2021/04/20 07:56:47;;;;;;;11.52;5.00;;;21.80;59.40;;;;;;5084374;28;20141;-69
2021/04/20 07:59:24;;;;;;;12.82;5.53;;;21.80;59.30;;;;;;5085488;28;20047;-71
2021/04/20 08:01:57;;;;;;;16.13;5.25;;;21.90;59.30;;;;;;5090010;28;20024;-70
2021/04/20 08:04:48;;;;;;;13.88;4.70;;;21.90;59.20;;;;;;5084419;28;20356;-70
2021/04/20 08:07:30;;;;;;;10.00;3.72;;;21.90;59.10;;;;;;5090408;28;20024;-71
2021/04/20 08:10:01;;;;;;;6.45;3.38;;;22.00;59.10;;;;;;5083172;28;20439;-68
2021/04/20 08:12:31;;;;;;;12.38;4.13;;;22.00;59.00;;;;;;5090944;28;20012;-69
2021/04/20 08:15:13;;;;;;;10.52;3.40;;;22.10;58.90;;;;;;5089957;28;20460;-69
2021/04/20 08:18:26;;;;;;;12.63;5.00;;;22.10;59.00;;;;;;5089923;28;20012;-69
2021/04/20 08:20:53;;;;;;;12.38;4.30;;;22.20;58.90;;;;;;5075788;28;20072;-73
2021/04/20 08:23:21;;;;;;;13.45;4.72;;;22.20;58.80;;;;;;5089371;28;20027;-70
2021/04/20 08:26:07;;;;;;;15.95;5.30;;;22.20;58.80;;;;;;5090129;28;20374;-68
2021/04/20 08:28:55;;;;;;;15.10;5.22;;;22.30;58.80;;;;;;5087968;28;20053;-68
2021/04/20 08:31:34;;;;;;;8.63;4.03;;;22.40;58.90;;;;;;5089096;28;20054;-71
2021/04/20 08:34:41;;;;;;;9.52;4.32;;;22.40;58.70;;;;;;5090719;28;20020;-68
2021/04/20 08:37:23;;;;;;;13.27;4.25;;;22.50;58.50;;;;;;5088267;28;20441;-69
2021/04/20 08:40:22;;;;;;;11.52;3.65;;;22.50;58.40;;;;;;5089258;28;20103;-69
2021/04/20 08:43:09;;;;;;;8.70;3.83;;;22.60;58.10;;;;;;5077938;28;20088;-68
2021/04/20 08:46:12;;;;;;;8.68;4.63;;;22.60;58.00;;;;;;5085636;28;20036;-68
2021/04/20 08:48:51;;;;;;;11.85;5.70;;;22.70;57.90;;;;;;5086147;28;20491;-68
2021/04/20 08:51:30;;;;;;;7.25;4.32;;;22.80;57.40;;;;;;5090131;28;20022;-69
2021/04/20 08:54:08;;;;;;;11.10;4.20;;;22.80;57.20;;;;;;5089777;28;20050;-69
2021/04/20 08:56:46;;;;;;;9.32;4.32;;;22.90;57.00;;;;;;5089704;28;20096;-68
2021/04/20 08:59:55;;;;;;;9.75;4.60;;;23.00;56.90;;;;;;5089883;28;20478;-69
2021/04/20 09:02:35;;;;;;;9.02;4.43;;;23.00;56.60;;;;;;5083754;28;20066;-72
2021/04/20 09:05:21;;;;;;;6.28;4.28;;;23.10;56.30;;;;;;5083635;28;20047;-68
2021/04/20 09:08:18;;;;;;;9.20;5.05;;;23.10;55.90;;;;;;5079301;28;20081;-68
2021/04/20 09:10:50;;;;;;;5.50;3.80;;;23.20;55.80;;;;;;5087816;28;20093;-68
2021/04/20 09:13:22;;;;;;;9.95;3.97;;;23.20;55.70;;;;;;5089673;28;20040;-69
2021/04/20 09:15:57;;;;;;;10.65;3.78;;;23.30;55.80;;;;;;5089705;28;20026;-68
2021/04/20 09:18:36;;;;;;;9.18;4.43;;;23.30;55.70;;;;;;5090578;28;20075;-70
2021/04/20 09:21:28;;;;;;;11.50;4.20;;;23.40;55.60;;;;;;5096903;28;20028;-68
2021/04/20 09:23:55;;;;;;;5.68;3.33;;;23.50;55.40;;;;;;5087275;28;20123;-69
2021/04/20 09:26:29;;;;;;;13.60;5.32;;;23.50;55.20;;;;;;5095073;28;20031;-69
2021/04/20 09:29:12;;;;;;;8.52;4.15;;;23.60;55.30;;;;;;5090043;28;20077;-69
2021/04/20 09:31:45;;;;;;;13.48;6.13;;;23.60;55.40;;;;;;5089773;28;20039;-69
2021/04/20 09:34:14;;;;;;;10.80;4.32;;;23.70;55.40;;;;;;5096523;28;20117;-69
2021/04/20 09:36:41;;;;;;;8.93;4.38;;;23.80;55.50;;;;;;5095328;28;20115;-69
2021/04/20 09:39:09;;;;;;;7.65;3.83;;;23.80;55.60;;;;;;5094910;28;20103;-70
2021/04/20 09:41:44;;;;;;;14.70;3.95;;;23.90;55.50;;;;;;5095836;28;20062;-69
2021/04/20 09:44:16;;;;;;;;;;;24.00;55.40;;;;;;5096095;28;20093;-69
2021/04/20 09:46:48;;;;;;;10.00;4.63;;;24.00;55.40;;;;;;5096436;28;20374;-70
2021/04/20 09:49:36;;;;;;;16.40;4.88;;;24.10;55.30;;;;;;5094935;28;20027;-68
2021/04/20 09:52:15;;;;;;;14.25;4.68;;;24.20;55.20;;;;;;5091154;28;20039;-69
2021/04/20 09:55:00;;;;;;;14.75;5.07;;;24.20;54.90;;;;;;5095225;28;20020;-70
2021/04/20 09:57:32;;;;;;;16.75;5.50;;;24.30;54.80;;;;;;5093888;28;20016;-69
2021/04/20 10:00:06;;;;;;;21.85;7.18;;;24.30;54.60;;;;;;5095993;28;20020;-68
2021/04/20 10:02:51;;;;;;;12.68;6.05;;;24.40;54.50;;;;;;5095343;28;20503;-69
2021/04/20 10:05:21;;;;;;;20.90;6.95;;;24.40;54.30;;;;;;5095584;28;20028;-69
2021/04/20 10:08:09;;;;;;;13.60;5.30;;;24.50;54.30;;;;;;5096200;28;20040;-69
2021/04/20 10:11:34;;;;;;;11.13;5.72;;;24.60;54.20;;;;;;5094162;28;20081;-68
2021/04/20 10:14:22;;;;;;;16.42;5.35;;;24.60;54.10;;;;;;5077876;28;20040;-69
2021/04/20 10:17:14;;;;;;;11.88;5.32;;;24.80;54.00;;;;;;5086536;28;20070;-69
2021/04/20 10:20:03;;;;;;;15.85;5.80;;;24.80;53.60;;;;;;5094715;28;20103;-73
2021/04/20 10:22:52;;;;;;;9.65;4.78;;;24.90;53.50;;;;;;5090986;28;20107;-69
2021/04/20 10:25:50;;;;;;;13.60;4.97;;;25.00;53.30;;;;;;5095469;28;20386;-69
2021/04/20 10:28:37;;;;;;;14.50;5.00;;;25.00;53.40;;;;;;5076502;28;20036;-69
2021/04/20 10:31:42;;;;;;;10.48;4.43;;;25.10;52.90;;;;;;5092998;28;20421;-69
2021/04/20 10:34:10;;;;;;;14.45;4.43;;;25.20;52.70;;;;;;5076327;28;20051;-69
2021/04/20 10:36:38;;;;;;;11.98;3.95;;;25.20;52.50;;;;;;5091483;28;20475;-69
2021/04/20 10:39:08;;;;;;;18.10;4.80;;;25.30;52.40;;;;;;5092340;28;20051;-69
2021/04/20 10:41:36;;;;;;;11.75;5.05;;;25.30;52.40;;;;;;5091408;28;20085;-68
2021/04/20 10:44:14;;;;;;;14.30;5.30;;;25.40;52.40;;;;;;5092432;28;20028;-69
2021/04/20 10:46:42;;;;;;;18.90;4.65;;;25.40;52.20;;;;;;5092112;28;20036;-70
2021/04/20 10:49:14;;;;;;;12.27;3.95;;;25.50;52.00;;;;;;5091796;28;20021;-69
2021/04/20 10:51:42;;;;;;;16.98;4.85;;;25.60;51.80;;;;;;5092441;28;20028;-68
2021/04/20 10:54:11;;;;;;;12.90;4.53;;;25.70;51.50;;;;;;5090387;28;20024;-71
2021/04/20 10:56:38;;;;;;;14.40;3.75;;;25.70;51.60;;;;;;5092295;28;20043;-69
2021/04/20 10:59:09;;;;;;;12.15;4.28;;;25.80;51.40;;;;;;5087435;28;20645;-70
2021/04/20 11:01:41;;;;;;;13.38;4.13;;;25.80;51.40;;;;;;5091799;28;20024;-70
2021/04/20 11:04:09;;;;;;;10.98;4.40;;;25.90;51.20;;;;;;5091763;28;20023;-69
2021/04/20 11:06:37;;;;;;;11.98;3.63;;;25.90;51.10;;;;;;5091115;28;20020;-69
2021/04/20 11:09:03;;;;;;;10.02;3.88;;;26.00;50.90;;;;;;5091945;28;20660;-69
2021/04/20 11:11:30;;;;;;;11.90;3.92;;;26.10;50.80;;;;;;5079783;28;20016;-69
2021/04/20 11:13:56;;;;;;;12.90;4.75;;;26.10;50.70;;;;;;5092143;28;20473;-70
2021/04/20 11:16:32;;;;;;;14.40;3.63;;;26.20;50.60;;;;;;5090791;28;20575;-72
2021/04/20 11:19:09;;;;;;;14.98;3.55;;;26.20;50.20;;;;;;5091613;28;20506;-71
2021/04/20 11:21:39;;;;;;;11.27;3.78;;;26.30;50.10;;;;;;5089792;28;20363;-69
2021/04/20 11:24:19;;;;;;;6.65;2.65;;;26.30;49.90;;;;;;5090423;28;20387;-70
2021/04/20 11:26:54;;;;;;;6.85;2.80;;;26.40;49.70;;;;;;5091678;28;20485;-68
2021/04/20 11:29:30;;;;;;;17.50;3.47;;;26.50;50.10;;;;;;5090596;28;20070;-69
2021/04/20 11:31:58;;;;;;;6.25;3.67;;;26.60;49.50;;;;;;5091227;28;20054;-70
2021/04/20 11:34:31;;;;;;;7.00;2.92;;;26.60;49.10;;;;;;5085100;28;20019;-70
2021/04/20 11:37:05;;;;;;;11.43;4.97;;;26.70;49.00;;;;;;5090135;28;20322;-69
2021/04/20 11:39:51;;;;;;;12.15;3.60;;;26.70;48.80;;;;;;5091186;28;20070;-71
2021/04/20 11:42:27;;;;;;;10.07;3.17;;;26.80;48.80;;;;;;5089910;28;20028;-72
2021/04/20 11:45:10;;;;;;;7.25;2.97;;;26.80;48.40;;;;;;5091112;28;20039;-73
2021/04/20 11:47:48;;;;;;;11.57;4.35;;;26.90;48.20;;;;;;5086987;28;20031;-69
2021/04/20 11:50:16;;;;;;;11.70;2.50;;;27.00;48.30;;;;;;5089307;28;20012;-71
2021/04/20 11:52:44;;;;;;;10.05;2.65;;;27.00;48.10;;;;;;5091115;28;20493;-71
2021/04/20 11:55:14;;;;;;;10.93;2.58;;;27.10;48.00;;;;;;5090102;28;20059;-69
2021/04/20 11:57:45;;;;;;;5.70;2.80;;;27.10;47.70;;;;;;5090382;28;20024;-73
2021/04/20 12:00:57;;;;;;;8.60;3.40;;;27.20;47.70;;;;;;5089618;28;20593;-69
2021/04/20 12:04:06;;;;;;;8.70;2.75;;;27.20;47.50;;;;;;5088338;28;20043;-69
2021/04/20 12:07:19;;;;;;;9.93;2.78;;;27.30;47.40;;;;;;5087704;28;20040;-73
2021/04/20 12:10:25;;;;;;;7.50;3.30;;;27.30;47.10;;;;;;5086355;28;20032;-69
2021/04/20 12:13:31;;;;;;;12.48;4.78;;;27.40;47.10;;;;;;5087441;28;20028;-68
2021/04/20 12:16:40;;;;;;;11.93;3.08;;;27.50;47.00;;;;;;5087962;28;20036;-69
2021/04/20 12:19:46;;;;;;;9.23;2.92;;;27.50;46.80;;;;;;5088221;28;20046;-72
2021/04/20 12:22:52;;;;;;;7.97;2.80;;;27.50;46.90;;;;;;5089591;28;20470;-70
2021/04/20 12:25:58;;;;;;;11.27;3.42;;;27.60;46.70;;;;;;5088692;28;20031;-68
2021/04/20 12:29:04;;;;;;;13.82;3.13;;;27.60;46.40;;;;;;5086902;28;20022;-68
2021/04/20 12:32:13;;;;;;;6.40;2.50;;;27.70;46.60;;;;;;5086747;28;20054;-69
2021/04/20 12:35:19;;;;;;;8.00;2.50;;;27.70;46.40;;;;;;5087818;28;20035;-69
2021/04/20 12:38:26;;;;;;;9.45;2.90;;;27.70;46.50;;;;;;5086327;28;20111;-69
2021/04/20 12:41:32;;;;;;;9.45;3.47;;;27.80;46.30;;;;;;5089567;28;20024;-69
2021/04/20 12:44:38;;;;;;;11.23;3.20;;;27.80;46.20;;;;;;5086292;28;20443;-68
2021/04/20 12:47:46;;;;;;;11.02;3.05;;;27.80;46.10;;;;;;5068778;28;20038;-73
2021/04/20 12:50:53;;;;;;;8.13;3.28;;;27.90;46.20;;;;;;5070588;28;20371;-69
2021/04/20 12:54:00;;;;;;;8.95;3.20;;;27.90;46.30;;;;;;5089470;28;20024;-69
2021/04/20 12:57:11;;;;;;;11.65;4.13;;;27.90;46.30;;;;;;5088590;28;20053;-73
2021/04/20 13:00:18;;;;;;;8.90;3.30;;;27.90;46.20;;;;;;5087629;28;20028;-71
2021/04/20 13:03:24;;;;;;;7.07;3.25;;;27.90;46.50;;;;;;5085430;28;20028;-70
2021/04/20 13:06:30;;;;;;;6.68;3.08;;;28.00;46.40;;;;;;5079284;28;20078;-68
2021/04/20 13:09:43;;;;;;;10.15;2.85;;;28.00;46.20;;;;;;5089267;28;20070;-70
2021/04/20 13:12:49;;;;;;;11.43;3.08;;;28.00;45.90;;;;;;5089036;28;20020;-69
2021/04/20 13:15:56;;;;;;;12.90;2.78;;;28.00;46.10;;;;;;5086904;28;20036;-69
2021/04/20 13:19:02;;;;;;;8.25;3.08;;;28.00;45.90;;;;;;5085795;28;20124;-69
2021/04/20 13:22:08;;;;;;;7.68;3.08;;;28.00;45.80;;;;;;5088688;28;20023;-70
2021/04/20 13:25:23;;;;;;;7.55;2.92;;;28.00;45.80;;;;;;5089239;28;20013;-69
2021/04/20 13:28:32;;;;;;;8.07;2.35;;;28.00;45.70;;;;;;5086841;28;20028;-68